createdAt,value
2023-06-11T00:00:58.796Z,11.53
2023-06-11T00:03:01.051Z,11.97
2023-06-11T00:05:11.082Z,12.27
2023-06-11T00:07:14.091Z,11.73
2023-06-11T00:09:16.135Z,12.63
2023-06-11T00:11:18.617Z,12.10
2023-06-11T00:13:20.728Z,12.10
2023-06-11T00:15:22.941Z,12.77
2023-06-11T00:17:25.019Z,12.80
2023-06-11T00:19:30.362Z,12.97
2023-06-11T00:21:33.144Z,12.07
2023-06-11T00:23:37.532Z,13.63
2023-06-11T00:25:39.709Z,12.73
2023-06-11T00:27:41.763Z,12.43
2023-06-11T00:29:43.888Z,13.50
2023-06-11T00:31:46.060Z,13.40
2023-06-11T00:33:48.171Z,13.63
2023-06-11T00:35:51.297Z,13.23
2023-06-11T00:37:56.301Z,12.90
2023-06-11T00:39:58.523Z,12.93
2023-06-11T00:42:00.900Z,12.47
2023-06-11T00:44:04.037Z,13.97
2023-06-11T00:46:11.915Z,12.30
2023-06-11T00:48:14.204Z,13.10
2023-06-11T00:50:16.623Z,12.70
2023-06-11T00:52:20.549Z,13.67
2023-06-11T00:54:22.886Z,12.13
2023-06-11T00:56:28.167Z,12.73
2023-06-11T00:58:31.153Z,13.40
2023-06-11T01:00:34.698Z,12.03
2023-06-11T01:02:41.996Z,11.77
2023-06-11T01:04:46.708Z,11.70
2023-06-11T01:06:53.187Z,12.37
2023-06-11T01:08:59.126Z,12.20
2023-06-11T01:11:14.963Z,12.60
2023-06-11T01:13:21.312Z,12.60
2023-06-11T01:15:23.424Z,10.90
2023-06-11T01:17:47.603Z,11.60
2023-06-11T01:20:00.315Z,12.30
2023-06-11T01:22:10.271Z,12.90
2023-06-11T01:24:16.809Z,12.20
2023-06-11T01:26:28.689Z,11.80
2023-06-11T01:28:33.185Z,11.37
2023-06-11T01:30:38.556Z,11.27
2023-06-11T01:32:41.938Z,12.13
2023-06-11T01:34:45.651Z,12.90
2023-06-11T01:36:52.832Z,12.70
2023-06-11T01:38:55.929Z,10.73
2023-06-11T01:41:13.352Z,12.00
2023-06-11T01:43:17.337Z,11.70
2023-06-11T01:45:20.320Z,11.50
2023-06-11T01:47:23.239Z,12.00
2023-06-11T01:49:25.463Z,11.30
2023-06-11T01:51:27.664Z,11.40
2023-06-11T01:53:29.692Z,11.33
2023-06-11T01:55:31.847Z,11.60
2023-06-11T01:57:35.146Z,11.20
2023-06-11T01:59:37.262Z,10.37
2023-06-11T02:01:39.607Z,11.27
2023-06-11T02:03:42.288Z,11.80
2023-06-11T02:05:44.972Z,10.50
2023-06-11T02:07:47.042Z,10.43
2023-06-11T02:09:49.167Z,10.67
2023-06-11T02:11:51.251Z,10.47
2023-06-11T02:13:53.864Z,10.63
2023-06-11T02:15:56.281Z,10.00
2023-06-11T02:17:58.397Z,10.47
2023-06-11T02:20:00.849Z,10.57
2023-06-11T02:22:03.161Z,9.40
2023-06-11T02:24:05.498Z,9.70
2023-06-11T02:26:07.721Z,10.17
2023-06-11T02:28:11.383Z,9.13
2023-06-11T02:30:14.042Z,10.50
2023-06-11T02:32:16.692Z,9.40
2023-06-11T02:34:19.033Z,9.43
2023-06-11T02:36:21.323Z,10.97
2023-06-11T02:38:23.581Z,10.10
2023-06-11T02:40:25.771Z,9.33
2023-06-11T02:42:27.850Z,10.23
2023-06-11T02:44:30.469Z,9.57
2023-06-11T02:46:33.059Z,10.43
2023-06-11T02:48:35.787Z,10.80
2023-06-11T02:50:37.846Z,10.57
2023-06-11T02:52:40.018Z,9.90
2023-06-11T02:54:42.122Z,10.93
2023-06-11T02:56:44.401Z,10.47
2023-06-11T02:58:48.477Z,10.53
2023-06-11T03:00:50.675Z,9.97
2023-06-11T03:02:53.082Z,9.90
2023-06-11T03:05:00.153Z,10.50
2023-06-11T03:07:02.306Z,9.33
2023-06-11T03:09:04.859Z,10.50
2023-06-11T03:11:08.091Z,9.70
2023-06-11T03:13:13.808Z,10.30
2023-06-11T03:15:18.257Z,9.87
2023-06-11T03:17:20.429Z,9.50
2023-06-11T03:19:22.567Z,10.20
2023-06-11T03:21:26.596Z,8.63
2023-06-11T03:23:28.676Z,8.97
2023-06-11T03:25:30.886Z,11.00
2023-06-11T03:27:32.977Z,10.10
2023-06-11T03:29:35.227Z,9.60
2023-06-11T03:31:39.789Z,9.27
2023-06-11T03:33:42.092Z,9.40
2023-06-11T03:35:44.256Z,9.83
2023-06-11T03:37:59.264Z,9.50
2023-06-11T03:40:02.308Z,9.90
2023-06-11T03:42:07.170Z,10.10
2023-06-11T03:44:09.393Z,9.97
2023-06-11T03:46:11.644Z,9.00
2023-06-11T03:48:14.637Z,9.07
2023-06-11T03:50:16.980Z,9.10
2023-06-11T03:52:19.198Z,10.67
2023-06-11T03:54:21.333Z,8.67
2023-06-11T03:56:24.769Z,8.47
2023-06-11T03:58:27.008Z,9.73
2023-06-11T04:00:32.064Z,8.30
2023-06-11T04:02:36.656Z,8.67
2023-06-11T04:04:39.569Z,8.20
2023-06-11T04:06:41.925Z,8.17
2023-06-11T04:08:44.067Z,8.53
2023-06-11T04:10:46.146Z,7.93
2023-06-11T04:12:48.667Z,8.10
2023-06-11T04:14:51.411Z,7.97
2023-06-11T04:16:53.930Z,7.90
2023-06-11T04:18:56.226Z,8.27
2023-06-11T04:20:59.203Z,8.07
2023-06-11T04:23:01.451Z,7.40
2023-06-11T04:25:03.843Z,7.07
2023-06-11T04:27:09.206Z,7.03
2023-06-11T04:29:11.664Z,8.17
2023-06-11T04:31:13.841Z,7.80
2023-06-11T04:33:16.945Z,7.30
2023-06-11T04:35:20.935Z,7.50
2023-06-11T04:37:23.789Z,7.57
2023-06-11T04:39:27.516Z,7.40
2023-06-11T04:41:30.693Z,6.77
2023-06-11T04:43:37.941Z,6.60
2023-06-11T04:45:40.842Z,6.40
2023-06-11T04:47:44.266Z,6.60
2023-06-11T04:49:52.479Z,7.07
2023-06-11T04:51:54.670Z,6.00
2023-06-11T04:54:08.604Z,6.10
2023-06-11T04:56:13.952Z,6.03
2023-06-11T04:58:17.032Z,5.90
2023-06-11T05:00:19.544Z,6.63
2023-06-11T05:02:24.692Z,6.20
2023-06-11T05:04:26.956Z,6.57
2023-06-11T05:06:31.051Z,6.50
2023-06-11T05:08:34.044Z,5.60
2023-06-11T05:10:38.833Z,5.50
2023-06-11T05:12:41.160Z,5.63
2023-06-11T05:14:43.682Z,5.80
2023-06-11T05:16:46.665Z,5.57
2023-06-11T05:18:49.829Z,5.40
2023-06-11T05:20:53.071Z,5.10
2023-06-11T05:22:59.784Z,4.97
2023-06-11T05:25:04.326Z,5.50
2023-06-11T05:27:07.320Z,5.10
2023-06-11T05:29:09.591Z,5.43
2023-06-11T05:31:14.078Z,5.03
2023-06-11T05:33:19.609Z,5.30
2023-06-11T05:35:21.699Z,5.60
2023-06-11T05:37:25.104Z,4.80
2023-06-11T05:39:28.272Z,4.90
2023-06-11T05:41:30.830Z,4.60
2023-06-11T05:43:33.499Z,4.90
2023-06-11T05:45:36.322Z,4.80
2023-06-11T05:47:39.067Z,4.73
2023-06-11T05:49:41.457Z,4.93
2023-06-11T05:51:44.200Z,4.83
2023-06-11T05:53:47.379Z,4.87
2023-06-11T05:55:51.238Z,4.37
2023-06-11T05:57:55.069Z,4.60
2023-06-11T05:59:57.813Z,5.63
2023-06-11T06:02:00.868Z,4.53
2023-06-11T06:04:03.608Z,4.90
2023-06-11T06:06:05.945Z,4.40
2023-06-11T06:08:08.028Z,4.43
2023-06-11T06:10:10.499Z,4.40
2023-06-11T06:12:13.026Z,4.87
2023-06-11T06:14:15.355Z,4.50
2023-06-11T06:16:19.114Z,5.37
2023-06-11T06:18:22.057Z,4.33
2023-06-11T06:20:24.291Z,4.50
2023-06-11T06:22:26.582Z,5.73
2023-06-11T06:24:29.507Z,4.70
2023-06-11T06:26:31.701Z,5.00
2023-06-11T06:28:35.366Z,4.50
2023-06-11T06:30:40.010Z,4.70
2023-06-11T06:32:44.536Z,5.30
2023-06-11T06:34:47.201Z,4.80
2023-06-11T06:36:49.361Z,4.80
2023-06-11T06:38:51.479Z,4.50
2023-06-11T06:40:53.557Z,4.50
2023-06-11T06:42:55.813Z,4.70
2023-06-11T06:45:05.498Z,5.37
2023-06-11T06:47:08.289Z,4.50
2023-06-11T06:49:10.408Z,4.63
2023-06-11T06:51:12.641Z,4.47
2023-06-11T06:53:18.166Z,4.57
2023-06-11T06:55:21.544Z,4.93
2023-06-11T06:57:24.626Z,4.70
2023-06-11T06:59:27.174Z,4.87
2023-06-11T07:01:29.285Z,4.80
2023-06-11T07:03:31.949Z,4.00
2023-06-11T07:05:34.317Z,4.60
2023-06-11T07:07:40.249Z,4.70
2023-06-11T07:09:44.708Z,4.87
2023-06-11T07:11:49.063Z,5.23
2023-06-11T07:13:51.689Z,4.90
2023-06-11T07:15:53.811Z,4.93
2023-06-11T07:17:56.137Z,4.97
2023-06-11T07:19:58.651Z,4.87
2023-06-11T07:22:00.986Z,5.57
2023-06-11T07:24:06.074Z,4.83
2023-06-11T07:26:08.780Z,4.60
2023-06-11T07:28:11.338Z,4.40
2023-06-11T07:30:14.215Z,4.60
2023-06-11T07:32:16.575Z,4.73
2023-06-11T07:34:21.320Z,5.10
2023-06-11T07:36:23.619Z,4.30
2023-06-11T07:38:25.726Z,4.23
2023-06-11T07:40:27.968Z,5.40
2023-06-11T07:42:30.398Z,4.90
2023-06-11T07:44:32.445Z,4.93
2023-06-11T07:46:34.636Z,4.80
2023-06-11T07:48:42.273Z,4.80
2023-06-11T07:50:45.347Z,4.40
2023-06-11T07:52:49.517Z,4.67
2023-06-11T07:54:57.872Z,4.90
2023-06-11T07:56:59.960Z,5.20
2023-06-11T07:59:02.169Z,4.50
2023-06-11T08:01:04.215Z,4.10
2023-06-11T08:03:06.319Z,4.53
2023-06-11T08:05:11.269Z,4.20
2023-06-11T08:07:13.626Z,4.60
2023-06-11T08:09:15.675Z,4.30
2023-06-11T08:11:17.872Z,4.73
2023-06-11T08:13:22.681Z,4.83
2023-06-11T08:15:25.630Z,5.00
2023-06-11T08:17:27.927Z,4.50
2023-06-11T08:19:30.775Z,5.37
2023-06-11T08:21:32.819Z,4.67
2023-06-11T08:23:39.995Z,4.70
2023-06-11T08:25:42.142Z,4.70
2023-06-11T08:27:44.154Z,5.20
2023-06-11T08:29:46.236Z,5.17
2023-06-11T08:31:48.509Z,4.97
2023-06-11T08:33:50.874Z,4.87
2023-06-11T08:35:52.996Z,5.70
2023-06-11T08:37:55.076Z,4.80
2023-06-11T08:39:57.114Z,4.60
2023-06-11T08:41:59.186Z,5.03
2023-06-11T08:44:01.369Z,4.67
2023-06-11T08:46:03.455Z,4.30
2023-06-11T08:48:06.952Z,4.70
2023-06-11T08:50:09.325Z,4.90
2023-06-11T08:52:11.768Z,4.30
2023-06-11T08:54:13.958Z,5.60
2023-06-11T08:56:16.950Z,5.07
2023-06-11T08:58:19.575Z,5.27
2023-06-11T09:00:22.354Z,4.70
2023-06-11T09:02:27.008Z,4.70
2023-06-11T09:04:29.358Z,5.07
2023-06-11T09:06:31.423Z,5.10
2023-06-11T09:08:33.595Z,4.93
2023-06-11T09:10:43.444Z,5.30
2023-06-11T09:12:46.676Z,4.90
2023-06-11T09:14:53.428Z,4.93
2023-06-11T09:16:55.475Z,4.20
2023-06-11T09:18:57.851Z,5.17
2023-06-11T09:21:03.506Z,5.17
2023-06-11T09:23:05.587Z,4.77
2023-06-11T09:25:17.562Z,5.13
2023-06-11T09:27:22.204Z,5.07
2023-06-11T09:29:26.217Z,4.37
2023-06-11T09:31:28.426Z,4.77
2023-06-11T09:33:32.227Z,4.10
2023-06-11T09:35:34.355Z,5.00
2023-06-11T09:37:47.896Z,3.97
2023-06-11T09:39:49.996Z,3.87
2023-06-11T09:41:53.006Z,4.77
2023-06-11T09:43:55.332Z,5.20
2023-06-11T09:45:57.945Z,4.90
2023-06-11T09:48:00.158Z,5.50
2023-06-11T09:50:03.244Z,4.87
2023-06-11T09:52:06.570Z,4.77
2023-06-11T09:54:09.160Z,4.93
2023-06-11T09:56:12.256Z,4.30
2023-06-11T09:58:15.119Z,5.37
2023-06-11T10:00:17.544Z,4.93
2023-06-11T10:02:19.865Z,5.00
2023-06-11T10:04:22.105Z,4.93
2023-06-11T10:06:28.338Z,4.37
2023-06-11T10:08:34.352Z,4.90
2023-06-11T10:10:39.089Z,5.30
2023-06-11T10:12:41.440Z,5.30
2023-06-11T10:14:51.366Z,4.40
2023-06-11T10:16:55.844Z,5.00
2023-06-11T10:19:07.336Z,4.77
2023-06-11T10:21:09.895Z,4.80
2023-06-11T10:23:12.918Z,4.90
2023-06-11T10:25:15.329Z,4.60
2023-06-11T10:27:18.333Z,4.10
2023-06-11T10:29:26.878Z,4.70
2023-06-11T10:31:31.431Z,3.83
2023-06-11T10:33:46.605Z,4.20
2023-06-11T10:35:49.024Z,4.17
2023-06-11T10:37:51.403Z,4.83
2023-06-11T10:39:55.717Z,4.37
2023-06-11T10:42:02.455Z,4.70
2023-06-11T10:44:04.842Z,4.63
2023-06-11T10:46:13.505Z,4.67
2023-06-11T10:48:16.080Z,5.20
2023-06-11T10:50:31.704Z,5.07
2023-06-11T10:52:47.819Z,4.50
2023-06-11T10:54:51.558Z,3.70
2023-06-11T10:56:54.876Z,4.10
2023-06-11T10:58:57.282Z,4.23
2023-06-11T11:01:00.296Z,4.97
2023-06-11T11:03:07.473Z,4.60
2023-06-11T11:05:12.268Z,4.83
2023-06-11T11:07:14.789Z,4.73
2023-06-11T11:09:23.838Z,5.00
2023-06-11T11:11:27.751Z,5.27
2023-06-11T11:13:30.488Z,4.87
2023-06-11T11:15:32.706Z,4.50
2023-06-11T11:17:35.216Z,4.40
2023-06-11T11:19:41.666Z,4.80
2023-06-11T11:21:52.078Z,5.33
2023-06-11T11:23:54.517Z,4.80
2023-06-11T11:25:56.920Z,4.57
2023-06-11T11:27:59.577Z,4.43
2023-06-11T11:30:04.000Z,5.17
2023-06-11T11:32:08.083Z,5.07
2023-06-11T11:34:10.386Z,5.33
2023-06-11T11:36:12.624Z,5.30
2023-06-11T11:38:14.864Z,4.43
2023-06-11T11:40:20.715Z,5.07
2023-06-11T11:42:26.202Z,4.60
2023-06-11T11:44:32.293Z,4.83
2023-06-11T11:46:38.039Z,5.23
2023-06-11T11:48:41.622Z,4.30
2023-06-11T11:50:46.419Z,5.00
2023-06-11T11:53:05.894Z,4.50
2023-06-11T11:55:08.945Z,4.40
2023-06-11T11:57:12.973Z,4.53
2023-06-11T11:59:21.404Z,4.60
2023-06-11T12:01:27.739Z,5.30
2023-06-11T12:03:30.428Z,5.33
2023-06-11T12:05:32.807Z,5.30
2023-06-11T12:07:35.196Z,5.00
2023-06-11T12:09:39.358Z,4.60
2023-06-11T12:11:56.107Z,4.70
2023-06-11T12:14:04.109Z,4.90
2023-06-11T12:16:06.534Z,4.70
2023-06-11T12:18:08.851Z,5.23
2023-06-11T12:20:12.220Z,5.03
2023-06-11T12:22:14.714Z,5.03
2023-06-11T12:24:17.233Z,5.33
2023-06-11T12:26:19.848Z,5.20
2023-06-11T12:28:22.699Z,5.20
2023-06-11T12:30:25.013Z,4.80
2023-06-11T12:32:27.414Z,5.10
2023-06-11T12:34:29.926Z,4.83
2023-06-11T12:36:34.187Z,4.80
2023-06-11T12:38:39.496Z,5.17
2023-06-11T12:40:43.020Z,4.80
2023-06-11T12:42:45.849Z,4.90
2023-06-11T12:44:48.647Z,4.63
2023-06-11T12:46:50.992Z,5.27
2023-06-11T12:48:53.974Z,6.70
2023-06-11T12:50:56.350Z,4.60
2023-06-11T12:52:58.957Z,5.67
2023-06-11T12:55:01.249Z,4.83
2023-06-11T12:57:04.126Z,5.30
2023-06-11T12:59:06.411Z,5.73
2023-06-11T13:01:08.941Z,5.43
2023-06-11T13:03:11.335Z,5.57
2023-06-11T13:05:13.634Z,5.87
2023-06-11T13:07:16.012Z,5.10
2023-06-11T13:09:19.935Z,5.63
2023-06-11T13:11:22.279Z,5.73
2023-06-11T13:13:24.642Z,8.10
2023-06-11T13:15:27.074Z,6.20
2023-06-11T13:17:29.323Z,5.40
2023-06-11T13:19:31.799Z,5.67
2023-06-11T13:21:34.130Z,5.40
2023-06-11T13:23:37.143Z,5.53
2023-06-11T13:25:39.637Z,5.70
2023-06-11T13:27:42.334Z,6.20
2023-06-11T13:29:44.636Z,6.40
2023-06-11T13:31:47.039Z,6.47
2023-06-11T13:33:49.381Z,6.43
2023-06-11T13:35:51.683Z,8.20
2023-06-11T13:37:54.068Z,7.13
2023-06-11T13:39:56.563Z,6.20
2023-06-11T13:41:58.931Z,6.07
2023-06-11T13:44:01.370Z,6.40
2023-06-11T13:46:03.703Z,5.97
2023-06-11T13:48:19.657Z,6.37
2023-06-11T13:50:21.980Z,6.10
2023-06-11T13:52:27.235Z,5.93
2023-06-11T13:54:29.673Z,5.93
2023-06-11T13:56:32.197Z,6.80
2023-06-11T13:58:34.466Z,6.73
2023-06-11T14:00:36.865Z,6.65
2023-06-11T14:02:39.307Z,6.10
2023-06-11T14:04:41.673Z,6.40
2023-06-11T14:06:44.340Z,6.87
2023-06-11T14:08:47.583Z,7.10
2023-06-11T14:10:51.023Z,6.70
2023-06-11T14:12:53.379Z,6.43
2023-06-11T14:14:58.252Z,6.63
2023-06-11T14:17:03.104Z,6.67
2023-06-11T14:19:05.666Z,6.70
2023-06-11T14:21:07.916Z,6.20
2023-06-11T14:23:10.278Z,7.13
2023-06-11T14:25:12.609Z,6.97
2023-06-11T14:27:14.866Z,7.40
2023-06-11T14:29:17.223Z,7.20
2023-06-11T14:31:20.179Z,7.10
2023-06-11T14:33:22.674Z,7.13
2023-06-11T14:35:25.034Z,7.77
2023-06-11T14:37:27.318Z,6.87
2023-06-11T14:39:30.716Z,7.30
2023-06-11T14:41:33.000Z,8.20
2023-06-11T14:43:35.262Z,7.13
2023-06-11T14:45:40.341Z,7.17
2023-06-11T14:47:43.769Z,7.93
2023-06-11T14:49:46.077Z,7.47
2023-06-11T14:51:49.199Z,7.20
2023-06-11T14:53:51.735Z,7.20
2023-06-11T14:55:54.200Z,7.47
2023-06-11T14:57:56.528Z,7.50
2023-06-11T14:59:58.989Z,7.90
2023-06-11T15:02:01.355Z,6.73
2023-06-11T15:04:06.140Z,8.07
2023-06-11T15:06:08.552Z,13.30
2023-06-11T15:08:10.860Z,8.43
2023-06-11T15:10:13.387Z,7.77
2023-06-11T15:12:15.958Z,7.87
2023-06-11T15:14:18.678Z,7.83
2023-06-11T15:16:20.976Z,7.70
2023-06-11T15:18:23.276Z,7.60
2023-06-11T15:20:25.577Z,7.10
2023-06-11T15:22:27.920Z,7.67
2023-06-11T15:24:30.221Z,7.23
2023-06-11T15:26:32.540Z,7.57
2023-06-11T15:28:34.926Z,7.97
2023-06-11T15:30:37.314Z,7.30
2023-06-11T15:32:39.705Z,7.60
2023-06-11T15:34:42.958Z,7.67
2023-06-11T15:36:45.279Z,7.30
2023-06-11T15:38:47.557Z,7.10
2023-06-11T15:40:49.902Z,7.97
2023-06-11T15:42:52.311Z,7.60
2023-06-11T15:44:54.613Z,7.87
2023-06-11T15:46:56.989Z,7.47
2023-06-11T15:48:59.386Z,7.13
2023-06-11T15:51:01.712Z,8.20
2023-06-11T15:53:04.081Z,7.10
2023-06-11T15:55:07.124Z,7.60
2023-06-11T15:57:09.586Z,7.37
2023-06-11T15:59:11.926Z,7.40
2023-06-11T16:01:16.721Z,7.30
2023-06-11T16:03:20.980Z,7.70
2023-06-11T16:05:23.294Z,7.57
2023-06-11T16:07:25.610Z,7.27
2023-06-11T16:09:28.701Z,7.80
2023-06-11T16:11:31.161Z,7.37
2023-06-11T16:13:33.429Z,8.60
2023-06-11T16:15:35.951Z,7.03
2023-06-11T16:17:38.303Z,7.30
2023-06-11T16:19:40.692Z,7.40
2023-06-11T16:21:42.976Z,8.10
2023-06-11T16:23:45.326Z,8.27
2023-06-11T16:25:47.779Z,6.93
2023-06-11T16:27:50.192Z,8.23
2023-06-11T16:29:52.762Z,7.90
2023-06-11T16:31:56.501Z,8.10
2023-06-11T16:34:00.222Z,7.47
2023-06-11T16:36:02.542Z,7.13
2023-06-11T16:38:04.818Z,6.93
2023-06-11T16:40:07.868Z,7.27
2023-06-11T16:42:11.882Z,6.90
2023-06-11T16:44:14.264Z,7.80
2023-06-11T16:46:17.437Z,7.40
2023-06-11T16:48:19.905Z,7.50
2023-06-11T16:50:22.468Z,7.40
2023-06-11T16:52:28.151Z,8.03
2023-06-11T16:54:31.172Z,8.47
2023-06-11T16:56:33.565Z,8.10
2023-06-11T16:58:36.128Z,7.40
2023-06-11T17:00:39.253Z,7.40
2023-06-11T17:02:42.076Z,7.27
2023-06-11T17:04:44.614Z,8.13
2023-06-11T17:06:46.970Z,7.60
2023-06-11T17:08:49.283Z,7.90
2023-06-11T17:10:51.998Z,7.30
2023-06-11T17:12:55.573Z,9.07
2023-06-11T17:14:57.969Z,7.27
2023-06-11T17:17:00.457Z,7.30
2023-06-11T17:19:04.960Z,7.20
2023-06-11T17:21:07.389Z,8.10
2023-06-11T17:23:09.824Z,8.07
2023-06-11T17:25:12.913Z,8.43
2023-06-11T17:27:15.599Z,7.70
2023-06-11T17:29:18.047Z,7.73
2023-06-11T17:31:20.417Z,8.00
2023-06-11T17:33:22.895Z,8.17
2023-06-11T17:35:25.370Z,7.57
2023-06-11T17:37:27.731Z,8.47
2023-06-11T17:39:30.040Z,7.10
2023-06-11T17:41:32.430Z,7.13
2023-06-11T17:43:34.714Z,7.53
2023-06-11T17:45:37.040Z,7.70
2023-06-11T17:47:39.540Z,8.00
2023-06-11T17:49:46.940Z,8.53
2023-06-11T17:51:51.665Z,8.00
2023-06-11T17:53:53.919Z,8.03
2023-06-11T17:55:56.172Z,8.30
2023-06-11T17:57:58.469Z,7.83
2023-06-11T18:00:00.729Z,8.13
2023-06-11T18:02:03.314Z,7.73
2023-06-11T18:04:05.813Z,7.70
2023-06-11T18:06:08.160Z,7.40
2023-06-11T18:08:10.442Z,7.70
2023-06-11T18:10:15.669Z,7.70
2023-06-11T18:12:17.973Z,6.87
2023-06-11T18:14:20.336Z,7.60
2023-06-11T18:16:22.815Z,8.00
2023-06-11T18:18:25.231Z,7.43
2023-06-11T18:20:28.613Z,7.47
2023-06-11T18:22:31.228Z,7.40
2023-06-11T18:24:34.549Z,7.67
2023-06-11T18:26:37.114Z,7.83
2023-06-11T18:28:39.499Z,7.60
2023-06-11T18:30:41.869Z,7.97
2023-06-11T18:32:44.252Z,7.43
2023-06-11T18:34:47.517Z,7.43
2023-06-11T18:36:50.043Z,7.23
2023-06-11T18:38:53.031Z,6.67
2023-06-11T18:40:55.401Z,7.37
2023-06-11T18:42:57.702Z,7.10
2023-06-11T18:44:59.986Z,7.77
2023-06-11T18:47:02.251Z,8.33
2023-06-11T18:49:06.674Z,7.40
2023-06-11T18:51:09.060Z,8.60
2023-06-11T18:53:11.799Z,7.57
2023-06-11T18:55:14.151Z,8.23
2023-06-11T18:57:19.436Z,7.77
2023-06-11T18:59:21.838Z,7.80
2023-06-11T19:01:24.339Z,7.40
2023-06-11T19:03:26.893Z,8.27
2023-06-11T19:05:29.498Z,7.47
2023-06-11T19:07:33.051Z,8.27
2023-06-11T19:09:35.336Z,7.37
2023-06-11T19:11:38.818Z,8.90
2023-06-11T19:13:44.956Z,8.10
2023-06-11T19:15:47.527Z,7.20
2023-06-11T19:17:49.894Z,7.20
2023-06-11T19:19:52.252Z,7.43
2023-06-11T19:21:55.908Z,7.50
2023-06-11T19:23:58.172Z,7.70
2023-06-11T19:26:00.563Z,6.97
2023-06-11T19:28:03.119Z,7.40
2023-06-11T19:30:06.361Z,7.23
2023-06-11T19:32:08.970Z,7.03
2023-06-11T19:34:11.264Z,7.10
2023-06-11T19:36:13.706Z,7.70
2023-06-11T19:38:16.059Z,7.50
2023-06-11T19:40:18.378Z,8.00
2023-06-11T19:42:20.673Z,8.17
2023-06-11T19:44:23.670Z,9.57
2023-06-11T19:46:28.716Z,8.70
2023-06-11T19:48:32.613Z,7.50
2023-06-11T19:50:35.015Z,7.87
2023-06-11T19:52:37.198Z,7.20
2023-06-11T19:54:50.718Z,7.40
2023-06-11T19:56:54.697Z,7.57
2023-06-11T19:58:57.698Z,7.07
2023-06-11T20:00:59.982Z,8.23
2023-06-11T20:03:02.465Z,7.70
2023-06-11T20:05:05.165Z,7.27
2023-06-11T20:07:10.848Z,8.20
2023-06-11T20:09:13.221Z,8.20
2023-06-11T20:11:19.117Z,7.70
2023-06-11T20:13:21.412Z,7.67
2023-06-11T20:15:23.714Z,7.67
2023-06-11T20:17:26.062Z,7.80
2023-06-11T20:19:28.611Z,7.37
2023-06-11T20:21:31.027Z,7.80
2023-06-11T20:23:33.567Z,7.70
2023-06-11T20:25:35.932Z,8.37
2023-06-11T20:27:38.272Z,7.67
2023-06-11T20:29:40.606Z,7.87
2023-06-11T20:31:42.943Z,7.87
2023-06-11T20:33:45.347Z,8.50
2023-06-11T20:35:47.610Z,8.67
2023-06-11T20:37:49.878Z,7.90
2023-06-11T20:39:52.214Z,9.30
2023-06-11T20:41:54.922Z,8.43
2023-06-11T20:43:57.273Z,8.03
2023-06-11T20:46:03.992Z,8.80
2023-06-11T20:48:11.344Z,8.83
2023-06-11T20:50:13.911Z,8.37
2023-06-11T20:52:16.693Z,9.37
2023-06-11T20:54:19.056Z,9.53
2023-06-11T20:56:22.914Z,9.60
2023-06-11T20:58:25.488Z,8.10
2023-06-11T21:00:27.784Z,7.90
2023-06-11T21:02:30.117Z,8.93
2023-06-11T21:04:32.457Z,8.47
2023-06-11T21:06:39.623Z,8.40
2023-06-11T21:08:41.812Z,8.60
2023-06-11T21:10:44.143Z,8.40
2023-06-11T21:12:50.096Z,8.60
2023-06-11T21:14:52.384Z,9.80
2023-06-11T21:16:54.655Z,8.80
2023-06-11T21:18:58.548Z,8.27
2023-06-11T21:21:00.933Z,8.73
2023-06-11T21:23:03.482Z,9.17
2023-06-11T21:25:06.979Z,8.13
2023-06-11T21:27:09.370Z,7.63
2023-06-11T21:29:11.734Z,7.80
2023-06-11T21:31:14.198Z,9.20
2023-06-11T21:33:16.461Z,8.83
2023-06-11T21:35:18.738Z,8.90
2023-06-11T21:37:21.018Z,8.93
2023-06-11T21:39:23.223Z,8.00
2023-06-11T21:41:25.534Z,8.30
2023-06-11T21:43:27.951Z,8.30
2023-06-11T21:45:30.408Z,9.37
2023-06-11T21:47:32.780Z,9.53
2023-06-11T21:49:35.299Z,8.57
2023-06-11T21:51:37.494Z,9.37
2023-06-11T21:53:39.651Z,10.03
2023-06-11T21:55:42.347Z,9.93
2023-06-11T21:57:44.764Z,9.13
2023-06-11T21:59:47.118Z,9.47
2023-06-11T22:01:49.432Z,9.10
2023-06-11T22:03:51.691Z,8.53
2023-06-11T22:05:54.803Z,9.10
2023-06-11T22:08:00.532Z,9.03
2023-06-11T22:10:07.016Z,8.73
2023-06-11T22:12:10.058Z,9.40
2023-06-11T22:14:12.741Z,9.00
2023-06-11T22:16:15.134Z,10.00
2023-06-11T22:18:17.447Z,9.03
2023-06-11T22:20:20.878Z,9.87
2023-06-11T22:22:23.206Z,9.03
2023-06-11T22:24:25.949Z,9.07
2023-06-11T22:26:28.997Z,10.27
2023-06-11T22:28:31.364Z,9.27
2023-06-11T22:30:44.018Z,9.70
2023-06-11T22:32:55.280Z,10.27
2023-06-11T22:34:57.826Z,9.40
2023-06-11T22:36:59.882Z,9.33
2023-06-11T22:39:01.898Z,9.90
2023-06-11T22:41:04.058Z,9.37
2023-06-11T22:43:07.874Z,10.33
2023-06-11T22:45:10.679Z,9.20
2023-06-11T22:47:13.199Z,9.07
2023-06-11T22:49:15.320Z,9.40
2023-06-11T22:51:17.542Z,9.93
2023-06-11T22:53:20.682Z,9.60
2023-06-11T22:55:23.000Z,9.47
2023-06-11T22:57:25.204Z,10.13
2023-06-11T22:59:27.463Z,10.33
2023-06-11T23:01:29.716Z,9.53
2023-06-11T23:03:32.046Z,10.07
2023-06-11T23:05:34.559Z,10.30
2023-06-11T23:07:36.825Z,10.60
2023-06-11T23:09:38.893Z,12.50
2023-06-11T23:11:41.274Z,10.50
2023-06-11T23:13:43.271Z,10.13
2023-06-11T23:15:45.453Z,10.03
2023-06-11T23:17:54.594Z,10.30
2023-06-11T23:19:56.842Z,10.43
2023-06-11T23:22:00.100Z,9.50
2023-06-11T23:24:06.047Z,9.70
2023-06-11T23:26:10.742Z,9.90
2023-06-11T23:28:13.508Z,9.13
2023-06-11T23:30:15.903Z,10.13
2023-06-11T23:32:19.196Z,10.03
2023-06-11T23:34:21.549Z,9.43
2023-06-11T23:36:24.022Z,9.60
2023-06-11T23:38:27.124Z,10.13
2023-06-11T23:40:29.192Z,9.10
2023-06-11T23:42:31.731Z,10.17
2023-06-11T23:44:33.843Z,9.40
2023-06-11T23:46:36.549Z,9.57
2023-06-11T23:48:39.935Z,8.83
2023-06-11T23:50:43.152Z,9.90
2023-06-11T23:52:45.322Z,9.90
2023-06-11T23:54:47.390Z,8.80
2023-06-11T23:56:49.521Z,9.40
2023-06-11T23:58:51.557Z,8.80
